Time;durP1;ratioP1;P1;durP2;ratioP2;P2;SDS_P1;SDS_P2;PMS_P1;PMS_P2;Temp;Humidity;BMP_temperature;BMP_pressure;BME280_temperature;BME280_humidity;BME280_pressure;Samples;Min_cycle;Max_cycle;Signal;HPM_P1;HPM_P2
2023/05/19 09:46:36;;;;;;;10.07;4.97;;;;;;;;;;5088360;27;20784;-74
2023/05/19 09:49:09;;;;;;;7.22;4.95;;;;;;;;;;5090129;28;20453;-74
2023/05/19 09:51:40;;;;;;;7.93;5.10;;;;;;;;;;5045619;28;20094;-74
2023/05/19 09:54:08;;;;;;;8.70;5.15;;;;;;;;;;5075137;28;20071;-74
2023/05/19 09:56:35;;;;;;;8.80;5.10;;;;;;;;;;5086520;28;20045;-74
2023/05/19 09:59:03;;;;;;;11.32;5.45;;;;;;;;;;5077874;28;20058;-75
2023/05/19 10:01:30;;;;;;;9.13;5.07;;;;;;;;;;5079547;28;20091;-74
2023/05/19 10:03:57;;;;;;;8.45;5.70;;;;;;;;;;5079825;28;20036;-74
2023/05/19 10:06:24;;;;;;;9.25;4.85;;;;;;;;;;5077884;28;20053;-74
2023/05/19 10:08:51;;;;;;;8.93;5.20;;;;;;;;;;5080219;28;20177;-74
2023/05/19 10:11:17;;;;;;;9.82;5.20;;;;;;;;;;5073707;28;20045;-74
2023/05/19 10:13:45;;;;;;;6.35;4.93;;;;;;;;;;5078021;28;20067;-74
2023/05/19 10:16:11;;;;;;;10.32;5.20;;;;;;;;;;5078912;28;20056;-75
2023/05/19 10:18:37;;;;;;;6.97;5.20;;;;;;;;;;5077925;28;20587;-74
2023/05/19 10:21:04;;;;;;;10.55;5.35;;;;;;;;;;5081173;28;20488;-74
2023/05/19 10:23:30;;;;;;;8.70;5.20;;;;;;;;;;5072582;28;20602;-74
2023/05/19 10:26:00;;;;;;;6.32;4.47;;;;;;;;;;5073676;28;20049;-74
2023/05/19 10:28:30;;;;;;;8.85;5.43;;;;;;;;;;5073754;28;20046;-73
2023/05/19 10:30:58;;;;;;;9.43;4.97;;;;;;;;;;5073652;28;20060;-74
2023/05/19 10:33:35;;;;;;;9.60;5.20;;;;;;;;;;5072985;28;20040;-74
2023/05/19 10:36:09;;;;;;;7.75;4.85;;;;;;;;;;5083363;28;20036;-74
2023/05/19 10:38:36;;;;;;;9.80;4.95;;;;;;;;;;5074102;28;20040;-73
2023/05/19 10:41:05;;;;;;;9.38;4.95;;;;;;;;;;5081438;28;20131;-74
2023/05/19 10:43:38;;;;;;;10.90;5.10;;;;;;;;;;5082522;28;20484;-74
2023/05/19 10:46:05;;;;;;;8.25;4.65;;;;;;;;;;5082382;28;20052;-76
2023/05/19 10:48:37;;;;;;;8.00;4.68;;;;;;;;;;5085779;28;20048;-73
2023/05/19 10:51:03;;;;;;;6.22;3.95;;;;;;;;;;5083416;28;20051;-73
2023/05/19 10:53:30;;;;;;;9.35;4.00;;;;;;;;;;5080604;28;20124;-73
2023/05/19 10:56:01;;;;;;;8.48;4.63;;;;;;;;;;5080655;28;20102;-74
2023/05/19 10:58:40;;;;;;;7.30;4.40;;;;;;;;;;5066296;28;20083;-74
2023/05/19 11:01:08;;;;;;;9.90;4.22;;;;;;;;;;5078798;28;20075;-74
2023/05/19 11:04:04;;;;;;;5.38;3.90;;;;;;;;;;5067088;28;20123;-73
2023/05/19 11:06:31;;;;;;;8.68;3.90;;;;;;;;;;5041586;28;20835;-74
2023/05/19 11:08:59;;;;;;;7.63;4.10;;;;;;;;;;5061399;28;20036;-74
2023/05/19 11:11:25;;;;;;;7.70;4.22;;;;;;;;;;5063272;28;20254;-74
2023/05/19 11:13:55;;;;;;;8.13;4.13;;;;;;;;;;5061598;28;20044;-75
2023/05/19 11:16:28;;;;;;;8.32;4.28;;;;;;;;;;5059712;28;20051;-74
2023/05/19 11:18:54;;;;;;;;;;;;;;;;;;5065549;28;20055;-74
2023/05/19 11:21:20;;;;;;;7.03;4.00;;;;;;;;;;5060944;28;19934;-77
2023/05/19 11:23:46;;;;;;;7.68;4.18;;;;;;;;;;5061566;28;20051;-74
2023/05/19 11:26:12;;;;;;;6.10;4.07;;;;;;;;;;5058522;28;20063;-73
2023/05/19 11:28:39;;;;;;;6.72;4.15;;;;;;;;;;5064682;28;20056;-73
2023/05/19 11:31:09;;;;;;;9.18;4.97;;;;;;;;;;5059492;28;20067;-72
2023/05/19 11:33:35;;;;;;;6.63;4.38;;;;;;;;;;5066724;28;20041;-73
2023/05/19 11:36:02;;;;;;;9.23;4.50;;;;;;;;;;5061992;28;20127;-73
2023/05/19 11:38:32;;;;;;;8.80;4.57;;;;;;;;;;5060651;28;20197;-73
2023/05/19 11:40:58;;;;;;;7.68;4.13;;;;;;;;;;5062773;28;20049;-72
2023/05/19 11:43:24;;;;;;;8.82;4.32;;;;;;;;;;5057517;28;20040;-73
2023/05/19 11:45:51;;;;;;;9.45;4.60;;;;;;;;;;5065877;28;20063;-73
2023/05/19 11:48:19;;;;;;;6.97;4.10;;;;;;;;;;5060733;28;20076;-73
2023/05/19 11:50:46;;;;;;;7.20;4.82;;;;;;;;;;5072696;28;20109;-73
2023/05/19 11:53:12;;;;;;;7.85;4.70;;;;;;;;;;5063742;28;20060;-72
2023/05/19 11:55:45;;;;;;;8.38;4.30;;;;;;;;;;5062517;28;20033;-73
2023/05/19 11:58:11;;;;;;;6.45;4.10;;;;;;;;;;5063584;28;20514;-72
2023/05/19 12:00:38;;;;;;;6.97;4.00;;;;;;;;;;5068385;28;20468;-73
2023/05/19 12:03:05;;;;;;;8.55;4.63;;;;;;;;;;5072721;28;20392;-74
2023/05/19 12:05:31;;;;;;;9.95;4.43;;;;;;;;;;5067304;28;20142;-75
2023/05/19 12:07:58;;;;;;;8.38;4.15;;;;;;;;;;5070431;28;20040;-74
2023/05/19 12:10:26;;;;;;;8.73;4.63;;;;;;;;;;5077079;28;20053;-74
2023/05/19 12:12:52;;;;;;;7.90;3.92;;;;;;;;;;5058041;28;20079;-74
2023/05/19 12:15:22;;;;;;;11.05;4.28;;;;;;;;;;5063225;28;20052;-74
2023/05/19 12:17:49;;;;;;;8.80;4.93;;;;;;;;;;5075809;28;20051;-73
2023/05/19 12:20:15;;;;;;;9.00;4.32;;;;;;;;;;5061607;28;20086;-73
2023/05/19 12:22:41;;;;;;;12.77;4.72;;;;;;;;;;5060288;28;20056;-74
2023/05/19 12:25:07;;;;;;;5.80;3.88;;;;;;;;;;5058959;28;20048;-73
2023/05/19 12:27:38;;;;;;;8.45;3.95;;;;;;;;;;5060062;28;20480;-74
2023/05/19 12:30:04;;;;;;;8.95;4.47;;;;;;;;;;5061605;28;20071;-73
2023/05/19 12:32:33;;;;;;;9.68;4.60;;;;;;;;;;5066860;28;20083;-75
2023/05/19 12:35:01;;;;;;;8.18;4.28;;;;;;;;;;5051173;28;20472;-75
2023/05/19 12:37:32;;;;;;;5.53;3.88;;;;;;;;;;5067847;28;20040;-75
2023/05/19 12:39:58;;;;;;;6.90;3.67;;;;;;;;;;5065836;28;20480;-75
2023/05/19 12:42:29;;;;;;;11.50;3.97;;;;;;;;;;5067474;28;20141;-75
2023/05/19 12:44:56;;;;;;;5.88;3.92;;;;;;;;;;5063474;28;20114;-75
2023/05/19 12:47:22;;;;;;;7.50;3.47;;;;;;;;;;5065799;28;20040;-75
2023/05/19 12:50:06;;;;;;;8.00;3.42;;;;;;;;;;5066084;28;20048;-75
2023/05/19 12:52:34;;;;;;;5.90;3.53;;;;;;;;;;5066470;28;20071;-75
2023/05/19 12:55:04;;;;;;;5.03;3.53;;;;;;;;;;5065701;28;20476;-75
2023/05/19 12:57:31;;;;;;;8.05;3.45;;;;;;;;;;5068220;28;20045;-74
2023/05/19 13:00:09;;;;;;;7.70;4.00;;;;;;;;;;5065216;28;20101;-75
2023/05/19 13:02:36;;;;;;;6.82;3.50;;;;;;;;;;5066522;28;20377;-75
2023/05/19 13:05:03;;;;;;;5.10;3.30;;;;;;;;;;5067264;28;20040;-75
2023/05/19 13:07:29;;;;;;;6.10;3.58;;;;;;;;;;5065639;28;20052;-75
2023/05/19 13:09:55;;;;;;;8.48;3.70;;;;;;;;;;5068799;28;20396;-75
2023/05/19 13:12:21;;;;;;;5.88;3.10;;;;;;;;;;5060182;28;20048;-75
2023/05/19 13:14:47;;;;;;;6.53;3.15;;;;;;;;;;5068044;28;20198;-76
2023/05/19 13:17:13;;;;;;;6.28;3.05;;;;;;;;;;5064797;28;20127;-76
2023/05/19 13:19:42;;;;;;;5.80;3.00;;;;;;;;;;5063317;28;20101;-76
2023/05/19 13:22:08;;;;;;;4.60;2.90;;;;;;;;;;5065622;28;20048;-75
2023/05/19 13:24:34;;;;;;;7.32;3.25;;;;;;;;;;5060535;28;20044;-75
2023/05/19 13:27:01;;;;;;;4.03;2.90;;;;;;;;;;5062916;28;20515;-76
2023/05/19 13:29:27;;;;;;;4.93;2.70;;;;;;;;;;5065394;28;20097;-76
2023/05/19 13:31:54;;;;;;;4.78;2.50;;;;;;;;;;5066495;28;20125;-76
2023/05/19 13:34:19;;;;;;;4.55;2.80;;;;;;;;;;5066680;28;20036;-76
2023/05/19 13:36:47;;;;;;;4.32;2.70;;;;;;;;;;5064401;28;20104;-75
2023/05/19 13:39:13;;;;;;;5.40;3.10;;;;;;;;;;5065673;28;20048;-76
2023/05/19 13:41:39;;;;;;;5.65;3.08;;;;;;;;;;5066792;28;20037;-76
2023/05/19 13:44:05;;;;;;;4.97;2.90;;;;;;;;;;5068511;28;20391;-75
2023/05/19 13:46:31;;;;;;;6.20;3.58;;;;;;;;;;5061861;28;20056;-76
2023/05/19 13:48:57;;;;;;;4.60;3.38;;;;;;;;;;5053135;28;20086;-75
2023/05/19 13:51:23;;;;;;;3.90;3.20;;;;;;;;;;5066289;28;20505;-76
2023/05/19 13:53:49;;;;;;;4.80;3.10;;;;;;;;;;5065525;28;20083;-75
2023/05/19 13:56:15;;;;;;;8.98;3.53;;;;;;;;;;5067465;28;20514;-75
2023/05/19 13:58:41;;;;;;;6.82;3.70;;;;;;;;;;5069711;28;20041;-75
2023/05/19 14:01:08;;;;;;;5.00;2.83;;;;;;;;;;5062180;28;20047;-75
2023/05/19 14:03:35;;;;;;;4.65;3.28;;;;;;;;;;5064295;28;20119;-75
2023/05/19 14:06:02;;;;;;;7.20;3.50;;;;;;;;;;5066461;28;20132;-74
2023/05/19 14:08:28;;;;;;;8.50;3.35;;;;;;;;;;5067494;28;20545;-75
2023/05/19 14:10:54;;;;;;;5.38;3.40;;;;;;;;;;5065590;28;20044;-74
2023/05/19 14:13:20;;;;;;;6.05;3.30;;;;;;;;;;5067603;28;20041;-75
2023/05/19 14:15:47;;;;;;;6.85;3.65;;;;;;;;;;5067198;28;20049;-76
2023/05/19 14:18:14;;;;;;;7.10;3.30;;;;;;;;;;5057718;28;20045;-75
2023/05/19 14:20:40;;;;;;;4.78;3.70;;;;;;;;;;5066396;28;20119;-74
2023/05/19 14:23:06;;;;;;;7.85;4.13;;;;;;;;;;5063429;28;20175;-73
2023/05/19 14:25:32;;;;;;;6.55;4.28;;;;;;;;;;5066122;28;20090;-75
2023/05/19 14:27:58;;;;;;;7.63;3.97;;;;;;;;;;5048865;28;20048;-75
2023/05/19 14:30:25;;;;;;;6.78;4.00;;;;;;;;;;5065211;28;20041;-77
2023/05/19 14:32:51;;;;;;;8.77;4.20;;;;;;;;;;5070109;28;20036;-76
2023/05/19 14:35:17;;;;;;;6.22;4.22;;;;;;;;;;5064889;28;20091;-75
2023/05/19 14:37:42;;;;;;;7.85;3.92;;;;;;;;;;5066647;28;20133;-76
2023/05/19 14:40:09;;;;;;;8.65;4.35;;;;;;;;;;5070411;28;20044;-75
2023/05/19 14:42:35;;;;;;;5.78;4.00;;;;;;;;;;5070951;28;20047;-75
2023/05/19 14:45:01;;;;;;;9.68;4.22;;;;;;;;;;5065419;28;20122;-74
2023/05/19 14:47:27;;;;;;;7.85;3.78;;;;;;;;;;5067029;28;20048;-73
2023/05/19 14:49:53;;;;;;;9.23;3.92;;;;;;;;;;5067619;28;20127;-73
2023/05/19 14:52:19;;;;;;;5.50;3.55;;;;;;;;;;5067803;28;20080;-74
2023/05/19 14:54:45;;;;;;;9.00;3.30;;;;;;;;;;5054267;28;20083;-73
2023/05/19 14:57:11;;;;;;;9.25;3.58;;;;;;;;;;5066354;28;20588;-73
2023/05/19 14:59:37;;;;;;;7.68;3.28;;;;;;;;;;5063814;28;20132;-71
2023/05/19 15:02:04;;;;;;;7.65;3.30;;;;;;;;;;5070251;28;20068;-73
2023/05/19 15:04:30;;;;;;;7.40;3.53;;;;;;;;;;5068984;28;20055;-75
2023/05/19 15:06:57;;;;;;;7.57;3.50;;;;;;;;;;5072022;28;20041;-77
2023/05/19 15:09:23;;;;;;;7.13;3.22;;;;;;;;;;5063749;28;20040;-80
2023/05/19 15:11:49;;;;;;;5.00;3.05;;;;;;;;;;5069186;28;20464;-79
2023/05/19 15:14:15;;;;;;;6.38;3.17;;;;;;;;;;5071344;28;20040;-79
2023/05/19 15:16:41;;;;;;;5.72;2.83;;;;;;;;;;5068540;28;20115;-77
2023/05/19 15:19:07;;;;;;;9.98;3.22;;;;;;;;;;5058731;28;20131;-75
2023/05/19 15:21:33;;;;;;;6.53;3.17;;;;;;;;;;5063509;28;20095;-75
2023/05/19 15:23:59;;;;;;;7.68;3.55;;;;;;;;;;5077856;28;20105;-75
2023/05/19 15:26:26;;;;;;;5.40;3.25;;;;;;;;;;5063947;28;20097;-76
2023/05/19 15:28:52;;;;;;;7.82;3.13;;;;;;;;;;5069362;28;20119;-76
2023/05/19 15:31:18;;;;;;;5.90;3.40;;;;;;;;;;5068431;28;20133;-76
2023/05/19 15:33:44;;;;;;;7.05;3.10;;;;;;;;;;5069196;28;20040;-75
2023/05/19 15:36:15;;;;;;;7.57;3.30;;;;;;;;;;5068398;28;20123;-75
2023/05/19 15:38:41;;;;;;;6.45;3.55;;;;;;;;;;5064123;28;20055;-75
2023/05/19 15:41:07;;;;;;;7.30;3.30;;;;;;;;;;5067891;28;20119;-75
2023/05/19 15:43:33;;;;;;;8.23;3.00;;;;;;;;;;5067037;28;20388;-75
2023/05/19 15:45:59;;;;;;;7.00;3.33;;;;;;;;;;5063402;28;21608;-75
2023/05/19 15:48:27;;;;;;;5.13;2.90;;;;;;;;;;5060550;28;20082;-76
2023/05/19 15:50:56;;;;;;;6.95;2.97;;;;;;;;;;5064084;28;20131;-78
2023/05/19 15:53:23;;;;;;;6.50;3.08;;;;;;;;;;5053258;28;20056;-77
2023/05/19 15:55:50;;;;;;;9.38;3.33;;;;;;;;;;5066438;28;20079;-76
2023/05/19 15:58:16;;;;;;;5.00;2.85;;;;;;;;;;5064816;28;20071;-78
2023/05/19 16:00:43;;;;;;;5.32;2.88;;;;;;;;;;5069335;28;20044;-77
2023/05/19 16:03:09;;;;;;;6.05;2.90;;;;;;;;;;5063016;28;20086;-76
2023/05/19 16:05:35;;;;;;;5.22;2.88;;;;;;;;;;5066760;28;20055;-73
2023/05/19 16:08:01;;;;;;;5.80;3.08;;;;;;;;;;5068569;28;20033;-73
2023/05/19 16:10:27;;;;;;;6.32;2.80;;;;;;;;;;5068242;28;20048;-73
2023/05/19 16:12:53;;;;;;;7.18;2.88;;;;;;;;;;5069601;28;20075;-73
2023/05/19 16:15:19;;;;;;;5.10;2.70;;;;;;;;;;5070596;28;20095;-73
2023/05/19 16:17:45;;;;;;;5.78;2.70;;;;;;;;;;5067818;28;20079;-75
2023/05/19 16:20:11;;;;;;;7.18;2.83;;;;;;;;;;5072210;28;20470;-73
2023/05/19 16:22:38;;;;;;;6.65;2.60;;;;;;;;;;5064616;28;20052;-73
2023/05/19 16:25:04;;;;;;;4.85;2.70;;;;;;;;;;5062229;28;20132;-76
2023/05/19 16:27:30;;;;;;;5.47;2.95;;;;;;;;;;5062027;28;20495;-74
2023/05/19 16:29:56;;;;;;;5.00;2.42;;;;;;;;;;5066226;28;20077;-76
2023/05/19 16:32:22;;;;;;;6.85;2.80;;;;;;;;;;5063530;28;20081;-74
2023/05/19 16:34:48;;;;;;;4.78;2.50;;;;;;;;;;5071287;28;20184;-74
2023/05/19 16:37:14;;;;;;;5.53;2.60;;;;;;;;;;5071387;28;20037;-74
2023/05/19 16:39:42;;;;;;;4.32;2.30;;;;;;;;;;5068342;28;20169;-74
2023/05/19 16:42:08;;;;;;;5.78;2.75;;;;;;;;;;5057259;28;20052;-73
2023/05/19 16:44:34;;;;;;;5.95;2.67;;;;;;;;;;5069920;28;20048;-74
2023/05/19 16:47:00;;;;;;;7.10;2.90;;;;;;;;;;5069220;28;20044;-74
2023/05/19 16:49:26;;;;;;;6.10;2.83;;;;;;;;;;5064630;28;20055;-71
2023/05/19 16:51:53;;;;;;;9.20;2.85;;;;;;;;;;5068864;28;20052;-77
2023/05/19 16:54:20;;;;;;;5.43;2.83;;;;;;;;;;5068637;28;20052;-74
2023/05/19 16:56:46;;;;;;;5.28;2.85;;;;;;;;;;5063816;28;20044;-74
2023/05/19 16:59:12;;;;;;;4.95;2.92;;;;;;;;;;5070121;28;20119;-74
2023/05/19 17:01:38;;;;;;;6.80;2.85;;;;;;;;;;5058099;28;20044;-74
2023/05/19 17:04:04;;;;;;;7.57;3.40;;;;;;;;;;5069460;28;21072;-74
2023/05/19 17:06:30;;;;;;;5.95;3.03;;;;;;;;;;5064944;28;20040;-80
2023/05/19 17:08:56;;;;;;;4.18;2.88;;;;;;;;;;5058010;28;20068;-73
2023/05/19 17:11:22;;;;;;;5.55;3.22;;;;;;;;;;5071722;28;20040;-80
2023/05/19 17:13:48;;;;;;;9.45;3.25;;;;;;;;;;5067710;28;20090;-80
2023/05/19 17:16:14;;;;;;;6.70;3.03;;;;;;;;;;5056563;28;20491;-80
2023/05/19 17:18:40;;;;;;;5.47;2.90;;;;;;;;;;5066176;28;20395;-76
2023/05/19 17:21:06;;;;;;;7.63;3.13;;;;;;;;;;5051006;28;20049;-72
2023/05/19 17:23:32;;;;;;;6.20;2.72;;;;;;;;;;5050593;28;20099;-73
2023/05/19 17:25:58;;;;;;;4.47;2.60;;;;;;;;;;5053881;28;20053;-73
2023/05/19 17:28:24;;;;;;;9.02;3.30;;;;;;;;;;5065092;28;20447;-73
2023/05/19 17:30:50;;;;;;;4.93;2.88;;;;;;;;;;5064637;28;20090;-76
2023/05/19 17:33:16;;;;;;;5.30;2.70;;;;;;;;;;5070256;28;20071;-73
2023/05/19 17:35:42;;;;;;;6.40;2.97;;;;;;;;;;5069229;28;20408;-72
2023/05/19 17:38:08;;;;;;;8.30;3.00;;;;;;;;;;5037297;28;20049;-72
2023/05/19 17:40:35;;;;;;;8.23;3.40;;;;;;;;;;5070808;28;20044;-73
2023/05/19 17:43:01;;;;;;;5.63;2.88;;;;;;;;;;5065942;28;20115;-71
2023/05/19 17:45:27;;;;;;;6.95;2.70;;;;;;;;;;5069429;28;20052;-73
2023/05/19 17:47:53;;;;;;;7.22;2.88;;;;;;;;;;5067007;28;20041;-74
2023/05/19 17:50:19;;;;;;;5.10;2.58;;;;;;;;;;5054862;28;20068;-74
2023/05/19 17:52:45;;;;;;;5.97;3.10;;;;;;;;;;5062044;28;20044;-77
2023/05/19 17:55:12;;;;;;;4.32;2.40;;;;;;;;;;5072897;28;20185;-74
2023/05/19 17:57:39;;;;;;;5.43;2.58;;;;;;;;;;5071331;28;20548;-74
2023/05/19 18:00:06;;;;;;;11.20;3.22;;;;;;;;;;5061271;28;20057;-78
2023/05/19 18:02:32;;;;;;;6.80;2.60;;;;;;;;;;5062790;28;20048;-75
2023/05/19 18:04:59;;;;;;;8.80;2.83;;;;;;;;;;5066168;28;20116;-75
2023/05/19 18:07:26;;;;;;;6.57;3.03;;;;;;;;;;5058906;28;20048;-75
2023/05/19 18:09:54;;;;;;;5.20;2.65;;;;;;;;;;5055186;28;20049;-76
2023/05/19 18:12:21;;;;;;;7.28;2.75;;;;;;;;;;5070049;28;20040;-76
2023/05/19 18:14:48;;;;;;;7.38;2.90;;;;;;;;;;5051629;28;20413;-76
2023/05/19 18:17:14;;;;;;;6.38;2.90;;;;;;;;;;5067459;28;20481;-76
2023/05/19 18:19:40;;;;;;;6.68;2.60;;;;;;;;;;5072457;28;20088;-74
2023/05/19 18:22:11;;;;;;;5.13;2.65;;;;;;;;;;5074674;28;20037;-76
2023/05/19 18:24:37;;;;;;;8.98;3.00;;;;;;;;;;5071416;28;20415;-73
2023/05/19 18:27:03;;;;;;;5.68;2.83;;;;;;;;;;5069661;28;20167;-74
2023/05/19 18:29:29;;;;;;;4.43;2.70;;;;;;;;;;5068373;28;20503;-75
2023/05/19 18:31:55;;;;;;;6.07;2.72;;;;;;;;;;5063511;28;20098;-75
2023/05/19 18:34:21;;;;;;;6.25;2.70;;;;;;;;;;5063222;28;20044;-77
2023/05/19 18:36:47;;;;;;;8.48;3.03;;;;;;;;;;5072026;28;20128;-75
2023/05/19 18:39:13;;;;;;;5.57;2.58;;;;;;;;;;5064388;28;20128;-75
2023/05/19 18:41:41;;;;;;;5.38;3.10;;;;;;;;;;5053031;28;20996;-76
2023/05/19 18:44:07;;;;;;;7.18;2.65;;;;;;;;;;5063622;28;20040;-76
2023/05/19 18:46:33;;;;;;;6.30;3.00;;;;;;;;;;5061527;28;20056;-78
2023/05/19 18:49:00;;;;;;;8.52;3.25;;;;;;;;;;5062580;28;20053;-77
2023/05/19 18:51:26;;;;;;;4.97;2.95;;;;;;;;;;5060506;28;20412;-78
2023/05/19 18:53:52;;;;;;;6.30;2.78;;;;;;;;;;5064455;28;20037;-79
2023/05/19 18:56:24;;;;;;;6.63;2.72;;;;;;;;;;5055982;28;20044;-80
2023/05/19 18:58:51;;;;;;;8.25;3.08;;;;;;;;;;5069540;28;20032;-79
2023/05/19 19:01:17;;;;;;;7.60;3.20;;;;;;;;;;5063056;28;20040;-78
2023/05/19 19:03:45;;;;;;;7.13;3.00;;;;;;;;;;5063901;28;20050;-79
2023/05/19 19:06:11;;;;;;;8.27;3.15;;;;;;;;;;5073209;28;20470;-80
2023/05/19 19:08:37;;;;;;;6.97;2.88;;;;;;;;;;5070138;28;20044;-80
2023/05/19 19:11:08;;;;;;;6.88;3.33;;;;;;;;;;5059013;28;20404;-81
2023/05/19 19:13:34;;;;;;;9.23;3.30;;;;;;;;;;5054689;28;20055;-79
2023/05/19 19:16:00;;;;;;;4.78;3.00;;;;;;;;;;5062533;28;20052;-75
2023/05/19 19:18:26;;;;;;;4.85;2.92;;;;;;;;;;5071597;28;20038;-78
2023/05/19 19:20:53;;;;;;;6.60;2.85;;;;;;;;;;5072334;28;20047;-78
2023/05/19 19:23:19;;;;;;;8.48;3.28;;;;;;;;;;5074506;28;20048;-77
2023/05/19 19:25:45;;;;;;;5.35;3.08;;;;;;;;;;5057560;28;20056;-74
2023/05/19 19:28:11;;;;;;;6.18;3.10;;;;;;;;;;5073114;28;20040;-73
2023/05/19 19:30:37;;;;;;;5.80;3.08;;;;;;;;;;5065638;28;20059;-73
2023/05/19 19:33:03;;;;;;;5.20;3.13;;;;;;;;;;5065578;28;20040;-74
2023/05/19 19:35:30;;;;;;;8.82;3.65;;;;;;;;;;5072967;28;20098;-73
2023/05/19 19:37:57;;;;;;;9.27;3.20;;;;;;;;;;5068088;28;20036;-74
2023/05/19 19:40:23;;;;;;;8.05;3.50;;;;;;;;;;5069119;28;20094;-74
2023/05/19 19:42:49;;;;;;;6.57;3.63;;;;;;;;;;5068522;28;20124;-74
2023/05/19 19:45:16;;;;;;;7.00;3.53;;;;;;;;;;5067643;28;20067;-74
2023/05/19 19:47:42;;;;;;;8.10;3.80;;;;;;;;;;5073997;28;20084;-74
2023/05/19 19:50:09;;;;;;;7.25;3.42;;;;;;;;;;5061023;28;20037;-73
2023/05/19 19:52:35;;;;;;;6.93;3.60;;;;;;;;;;5064701;28;20103;-74
2023/05/19 19:55:01;;;;;;;6.13;3.10;;;;;;;;;;5064651;28;20085;-74
2023/05/19 19:57:28;;;;;;;7.07;3.58;;;;;;;;;;5057248;28;20051;-74
2023/05/19 19:59:57;;;;;;;8.98;4.05;;;;;;;;;;5065745;28;20045;-74
2023/05/19 20:02:23;;;;;;;5.22;3.58;;;;;;;;;;5070364;28;20053;-74
2023/05/19 20:04:49;;;;;;;7.95;3.33;;;;;;;;;;5067221;28;20040;-73
2023/05/19 20:07:19;;;;;;;7.47;3.65;;;;;;;;;;5057271;28;20045;-73
2023/05/19 20:09:45;;;;;;;5.75;3.70;;;;;;;;;;5064774;28;20044;-73
2023/05/19 20:12:11;;;;;;;8.32;3.97;;;;;;;;;;5071088;28;20037;-73
2023/05/19 20:14:37;;;;;;;7.28;4.03;;;;;;;;;;5066677;28;20044;-74
2023/05/19 20:17:04;;;;;;;7.18;3.72;;;;;;;;;;5071664;28;20036;-74
2023/05/19 20:19:30;;;;;;;7.95;4.00;;;;;;;;;;5066769;28;20048;-76
2023/05/19 20:21:56;;;;;;;9.40;4.07;;;;;;;;;;5044542;28;20089;-76
2023/05/19 20:24:22;;;;;;;6.65;3.92;;;;;;;;;;5065743;28;20041;-80
2023/05/19 20:26:48;;;;;;;9.65;4.07;;;;;;;;;;5069991;28;20044;-76
2023/05/19 20:29:14;;;;;;;8.25;4.20;;;;;;;;;;5066682;28;20365;-75
2023/05/19 20:31:40;;;;;;;9.00;3.80;;;;;;;;;;5066422;28;20045;-75
2023/05/19 20:34:06;;;;;;;8.07;4.45;;;;;;;;;;5054120;28;20503;-76
2023/05/19 20:36:32;;;;;;;5.57;3.55;;;;;;;;;;5071522;28;20189;-75
2023/05/19 20:38:58;;;;;;;8.77;4.50;;;;;;;;;;5070176;28;20090;-74
2023/05/19 20:41:24;;;;;;;10.70;4.38;;;;;;;;;;5070847;28;20052;-77
2023/05/19 20:43:50;;;;;;;9.00;4.80;;;;;;;;;;5060903;28;20074;-76
2023/05/19 20:46:16;;;;;;;7.50;4.57;;;;;;;;;;5068450;28;20092;-76
2023/05/19 20:48:42;;;;;;;8.90;4.25;;;;;;;;;;5063120;28;20484;-77
2023/05/19 20:51:08;;;;;;;10.60;4.88;;;;;;;;;;5061259;28;20041;-78
2023/05/19 20:53:35;;;;;;;9.23;4.93;;;;;;;;;;5063197;28;20059;-77
2023/05/19 20:56:01;;;;;;;9.23;4.95;;;;;;;;;;5069017;28;20045;-76
2023/05/19 20:58:28;;;;;;;11.93;5.38;;;;;;;;;;5058500;28;20052;-76
2023/05/19 21:00:56;;;;;;;10.30;5.15;;;;;;;;;;5068689;28;20059;-76
2023/05/19 21:03:23;;;;;;;8.60;4.85;;;;;;;;;;5064142;28;20115;-74
2023/05/19 21:05:49;;;;;;;6.40;4.93;;;;;;;;;;5058385;28;20570;-74
2023/05/19 21:08:15;;;;;;;12.77;5.22;;;;;;;;;;5068062;28;20041;-75
2023/05/19 21:10:41;;;;;;;9.13;4.60;;;;;;;;;;5070742;28;20399;-74
2023/05/19 21:13:07;;;;;;;8.20;4.75;;;;;;;;;;5071360;28;20044;-74
2023/05/19 21:15:33;;;;;;;11.52;4.82;;;;;;;;;;5070931;28;20040;-76
2023/05/19 21:17:59;;;;;;;10.02;5.43;;;;;;;;;;5051704;28;20045;-74
2023/05/19 21:20:27;;;;;;;10.45;5.10;;;;;;;;;;5063892;28;20072;-76
2023/05/19 21:22:53;;;;;;;9.20;4.95;;;;;;;;;;5068018;28;20365;-74
2023/05/19 21:25:20;;;;;;;8.75;4.93;;;;;;;;;;5069524;28;20049;-75
2023/05/19 21:27:46;;;;;;;10.27;5.15;;;;;;;;;;5061385;28;20127;-75
2023/05/19 21:30:12;;;;;;;9.02;4.70;;;;;;;;;;5065038;28;20045;-76
2023/05/19 21:32:38;;;;;;;9.50;4.68;;;;;;;;;;5070167;28;20446;-76
2023/05/19 21:35:05;;;;;;;8.15;4.65;;;;;;;;;;5070711;28;20041;-75
2023/05/19 21:37:31;;;;;;;14.43;5.63;;;;;;;;;;5063419;28;20040;-75
2023/05/19 21:39:57;;;;;;;12.15;4.90;;;;;;;;;;5025638;28;20067;-79
2023/05/19 21:42:23;;;;;;;9.80;4.88;;;;;;;;;;5027674;28;20440;-79
2023/05/19 21:44:49;;;;;;;12.40;5.35;;;;;;;;;;5022170;28;20092;-77
2023/05/19 21:47:15;;;;;;;10.48;5.68;;;;;;;;;;5029377;28;20080;-77
2023/05/19 21:49:41;;;;;;;10.32;5.00;;;;;;;;;;5025227;28;20045;-77
2023/05/19 21:52:07;;;;;;;9.85;5.30;;;;;;;;;;5029997;28;20051;-75
2023/05/19 21:54:33;;;;;;;11.35;5.35;;;;;;;;;;5024999;28;20120;-76
2023/05/19 21:56:59;;;;;;;9.15;5.03;;;;;;;;;;5030613;28;20103;-78
2023/05/19 21:59:25;;;;;;;10.00;4.95;;;;;;;;;;5026868;28;20497;-74
2023/05/19 22:01:51;;;;;;;10.95;5.45;;;;;;;;;;5021822;28;20080;-74
2023/05/19 22:04:19;;;;;;;12.02;5.68;;;;;;;;;;5024552;28;20042;-74
2023/05/19 22:06:45;;;;;;;11.15;5.18;;;;;;;;;;5025738;28;20045;-74
2023/05/19 22:09:11;;;;;;;7.38;5.07;;;;;;;;;;5020210;28;20042;-75
2023/05/19 22:11:37;;;;;;;14.43;5.70;;;;;;;;;;5021014;28;20054;-74
2023/05/19 22:14:03;;;;;;;12.13;5.63;;;;;;;;;;5029234;28;20052;-75
2023/05/19 22:16:30;;;;;;;11.68;5.53;;;;;;;;;;5020743;28;20049;-76
2023/05/19 22:18:56;;;;;;;13.40;5.60;;;;;;;;;;5026861;28;20049;-76
2023/05/19 22:21:22;;;;;;;13.43;5.78;;;;;;;;;;5022883;28;20050;-77
2023/05/19 22:23:48;;;;;;;11.80;4.97;;;;;;;;;;5030761;28;20175;-76
2023/05/19 22:26:14;;;;;;;14.32;5.57;;;;;;;;;;5022118;28;20505;-77
2023/05/19 22:28:40;;;;;;;12.57;6.00;;;;;;;;;;5026331;28;20549;-76
2023/05/19 22:31:06;;;;;;;12.02;5.38;;;;;;;;;;5028302;28;20128;-76
2023/05/19 22:33:32;;;;;;;10.15;5.13;;;;;;;;;;5021576;28;20045;-76
2023/05/19 22:35:58;;;;;;;9.50;5.03;;;;;;;;;;5029739;28;20072;-77
2023/05/19 22:38:24;;;;;;;12.27;5.43;;;;;;;;;;5024811;28;20045;-76
2023/05/19 22:40:50;;;;;;;13.07;5.15;;;;;;;;;;5030744;28;20493;-78
2023/05/19 22:43:16;;;;;;;11.35;4.90;;;;;;;;;;5024154;28;20504;-74
2023/05/19 22:45:42;;;;;;;9.50;4.85;;;;;;;;;;5027887;28;20053;-75
2023/05/19 22:48:08;;;;;;;10.38;5.30;;;;;;;;;;5024088;28;20895;-75
2023/05/19 22:50:35;;;;;;;10.88;5.25;;;;;;;;;;5020675;28;20133;-76
2023/05/19 22:53:01;;;;;;;12.30;5.75;;;;;;;;;;5031337;28;20049;-75
2023/05/19 22:55:27;;;;;;;13.98;5.10;;;;;;;;;;5033070;28;20509;-76
2023/05/19 22:57:53;;;;;;;8.32;4.72;;;;;;;;;;5031673;28;20059;-73
2023/05/19 23:00:22;;;;;;;17.27;5.63;;;;;;;;;;5020710;28;20049;-72
2023/05/19 23:02:48;;;;;;;10.18;4.65;;;;;;;;;;5026289;28;20046;-73
2023/05/19 23:05:14;;;;;;;11.15;5.57;;;;;;;;;;5024402;28;20045;-72
2023/05/19 23:07:40;;;;;;;8.98;5.05;;;;;;;;;;5027993;28;20128;-72
2023/05/19 23:10:06;;;;;;;13.88;5.38;;;;;;;;;;5024790;28;20160;-73
2023/05/19 23:12:32;;;;;;;11.55;4.97;;;;;;;;;;5028221;28;20041;-73
2023/05/19 23:14:58;;;;;;;11.63;5.30;;;;;;;;;;5025872;28;20486;-73
2023/05/19 23:17:24;;;;;;;9.85;5.45;;;;;;;;;;5027974;28;20084;-74
2023/05/19 23:19:50;;;;;;;9.30;5.13;;;;;;;;;;5015906;28;20041;-73
2023/05/19 23:22:16;;;;;;;10.10;5.53;;;;;;;;;;5033161;28;20047;-75
2023/05/19 23:24:42;;;;;;;11.77;5.15;;;;;;;;;;5025119;28;20045;-75
2023/05/19 23:27:08;;;;;;;14.63;5.63;;;;;;;;;;5034406;28;20539;-73
2023/05/19 23:29:35;;;;;;;9.05;5.25;;;;;;;;;;5033780;28;20045;-75
2023/05/19 23:32:01;;;;;;;11.93;5.28;;;;;;;;;;5032736;28;20087;-74
2023/05/19 23:34:27;;;;;;;11.88;5.85;;;;;;;;;;5025471;28;20401;-74
2023/05/19 23:36:53;;;;;;;11.20;5.47;;;;;;;;;;5041152;28;20064;-74
2023/05/19 23:39:20;;;;;;;11.55;5.57;;;;;;;;;;5033488;28;20084;-74
2023/05/19 23:41:46;;;;;;;12.43;6.22;;;;;;;;;;5028515;28;20111;-74
2023/05/19 23:44:12;;;;;;;11.88;5.78;;;;;;;;;;5013550;28;20070;-74
2023/05/19 23:46:38;;;;;;;11.93;5.88;;;;;;;;;;5025262;28;20057;-74
2023/05/19 23:49:05;;;;;;;10.45;5.20;;;;;;;;;;5032012;28;20496;-74
2023/05/19 23:51:31;;;;;;;13.70;5.20;;;;;;;;;;5027689;28;20159;-74
2023/05/19 23:53:57;;;;;;;10.43;5.45;;;;;;;;;;5031840;28;20045;-73
2023/05/19 23:56:23;;;;;;;9.90;5.15;;;;;;;;;;5030858;28;20404;-74
2023/05/19 23:58:49;;;;;;;11.13;5.20;;;;;;;;;;5024435;28;20053;-74
